createdAt,value
2019-01-31T00:01:23.649Z,17.42
2019-01-31T00:04:12.566Z,14.63
2019-01-31T00:07:01.232Z,16.65
2019-01-31T00:10:00.334Z,15.93
2019-01-31T00:13:02.937Z,17.70
2019-01-31T00:15:48.687Z,18.92
2019-01-31T00:18:42.109Z,19.10
2019-01-31T00:21:24.811Z,16.95
2019-01-31T00:24:08.126Z,17.35
2019-01-31T00:26:48.101Z,16.85
2019-01-31T00:29:33.846Z,18.17
2019-01-31T00:32:25.436Z,19.98
2019-01-31T00:35:36.691Z,16.30
2019-01-31T00:38:25.607Z,20.00
2019-01-31T00:41:35.758Z,15.15
2019-01-31T00:44:34.680Z,15.50
2019-01-31T00:47:29.193Z,15.75
2019-01-31T00:50:17.851Z,17.27
2019-01-31T00:53:15.571Z,17.65
2019-01-31T00:56:13.651Z,15.90
2019-01-31T00:59:14.062Z,21.75
2019-01-31T01:02:19.326Z,15.03
2019-01-31T01:05:26.233Z,13.43
2019-01-31T01:08:18.550Z,18.50
2019-01-31T01:11:07.330Z,13.90
2019-01-31T01:14:11.244Z,14.65
2019-01-31T01:16:59.456Z,17.02
2019-01-31T01:19:42.471Z,15.32
2019-01-31T01:22:31.423Z,14.53
2019-01-31T01:25:23.104Z,10.95
2019-01-31T01:27:59.932Z,16.70
2019-01-31T01:30:48.013Z,13.90
2019-01-31T01:33:49.031Z,13.05
2019-01-31T01:36:34.562Z,11.80
2019-01-31T01:39:18.954Z,12.82
2019-01-31T01:42:24.800Z,11.48
2019-01-31T01:45:13.760Z,14.53
2019-01-31T01:47:48.291Z,12.35
2019-01-31T01:50:22.244Z,13.75
2019-01-31T01:53:02.082Z,12.85
2019-01-31T01:55:45.371Z,14.70
2019-01-31T01:58:49.431Z,10.82
2019-01-31T02:02:03.591Z,11.70
2019-01-31T02:04:43.318Z,13.83
2019-01-31T02:07:35.353Z,13.90
2019-01-31T02:10:27.358Z,14.90
2019-01-31T02:13:19.227Z,12.65
2019-01-31T02:16:09.975Z,13.32
2019-01-31T02:18:46.510Z,10.80
2019-01-31T02:21:23.263Z,15.43
2019-01-31T02:24:13.918Z,12.05
2019-01-31T02:27:10.463Z,11.50
2019-01-31T02:30:08.043Z,15.15
2019-01-31T02:33:14.179Z,9.38
2019-01-31T02:35:59.595Z,13.58
2019-01-31T02:38:48.388Z,13.25
2019-01-31T02:41:28.016Z,14.03
2019-01-31T02:44:29.058Z,10.35
2019-01-31T02:47:12.043Z,13.38
2019-01-31T02:49:55.258Z,12.85
2019-01-31T02:53:03.334Z,15.65
2019-01-31T02:56:12.411Z,11.05
2019-01-31T02:59:01.271Z,13.75
2019-01-31T03:01:58.578Z,15.90
2019-01-31T03:04:35.215Z,12.18
2019-01-31T03:07:59.697Z,11.28
2019-01-31T03:10:39.328Z,13.70
2019-01-31T03:13:27.533Z,10.65
2019-01-31T03:16:10.419Z,11.55
2019-01-31T03:18:53.445Z,10.53
2019-01-31T03:21:42.308Z,10.80
2019-01-31T03:24:30.394Z,12.20
2019-01-31T03:27:28.190Z,11.45
2019-01-31T03:30:24.583Z,13.13
2019-01-31T03:33:13.464Z,11.12
2019-01-31T03:36:19.080Z,9.70
2019-01-31T03:39:10.905Z,13.32
2019-01-31T03:41:56.409Z,11.30
2019-01-31T03:44:33.384Z,13.85
2019-01-31T03:47:23.801Z,13.58
2019-01-31T03:50:07.117Z,11.53
2019-01-31T03:52:52.472Z,11.95
2019-01-31T03:55:29.537Z,12.75
2019-01-31T03:58:33.250Z,15.53
2019-01-31T04:01:25.090Z,11.55
2019-01-31T04:04:05.230Z,12.93
2019-01-31T04:06:34.303Z,13.62
2019-01-31T04:09:04.997Z,12.18
2019-01-31T04:11:34.116Z,11.55
2019-01-31T04:14:03.188Z,11.95
2019-01-31T04:16:32.303Z,10.32
2019-01-31T04:19:01.425Z,10.65
2019-01-31T04:21:30.845Z,15.80
2019-01-31T04:23:59.896Z,12.95
2019-01-31T04:26:29.304Z,11.28
2019-01-31T04:28:58.425Z,11.68
2019-01-31T04:31:27.483Z,11.45
2019-01-31T04:33:56.622Z,13.08
2019-01-31T04:36:25.988Z,13.55
2019-01-31T04:38:55.494Z,11.05
2019-01-31T04:41:24.614Z,12.65
2019-01-31T04:43:53.684Z,16.87
2019-01-31T04:46:22.748Z,15.30
2019-01-31T04:48:51.860Z,15.40
2019-01-31T04:51:21.275Z,14.15
2019-01-31T04:53:50.425Z,12.25
2019-01-31T04:56:19.560Z,12.98
2019-01-31T04:58:48.655Z,15.55
2019-01-31T05:01:17.767Z,12.55
2019-01-31T05:03:47.166Z,17.60
2019-01-31T05:06:19.539Z,17.15
2019-01-31T05:08:48.635Z,13.58
2019-01-31T05:11:17.750Z,16.73
2019-01-31T05:13:46.846Z,14.85
2019-01-31T05:16:15.923Z,14.30
2019-01-31T05:18:45.031Z,14.47
2019-01-31T05:21:14.413Z,22.60
2019-01-31T05:23:44.418Z,16.30
2019-01-31T05:26:13.588Z,16.17
2019-01-31T05:28:42.914Z,21.73
2019-01-31T05:31:12.316Z,18.77
2019-01-31T05:33:41.715Z,25.00
2019-01-31T05:36:10.817Z,22.65
2019-01-31T05:38:39.897Z,23.83
2019-01-31T05:41:09.335Z,22.65
2019-01-31T05:43:38.408Z,20.65
2019-01-31T05:46:07.475Z,15.93
2019-01-31T05:48:36.675Z,17.40
2019-01-31T05:51:05.746Z,16.48
2019-01-31T05:53:35.110Z,20.37
2019-01-31T05:56:05.021Z,13.80
2019-01-31T05:58:34.808Z,16.02
2019-01-31T06:01:03.933Z,13.62
2019-01-31T06:03:33.329Z,19.02
2019-01-31T06:06:02.733Z,18.85
2019-01-31T06:08:31.825Z,15.00
2019-01-31T06:11:07.485Z,19.15
2019-01-31T06:13:31.709Z,18.60
2019-01-31T06:16:01.054Z,16.73
2019-01-31T06:18:30.176Z,22.58
2019-01-31T06:20:59.562Z,13.80
2019-01-31T06:23:28.973Z,14.35
2019-01-31T06:25:58.089Z,16.42
2019-01-31T06:28:27.484Z,18.17
2019-01-31T06:30:56.552Z,15.40
2019-01-31T06:33:28.391Z,13.62
2019-01-31T06:35:56.479Z,16.40
2019-01-31T06:38:25.557Z,16.40
2019-01-31T06:40:54.702Z,21.37
2019-01-31T06:43:23.767Z,14.03
2019-01-31T06:45:56.099Z,16.85
2019-01-31T06:48:24.315Z,13.88
2019-01-31T06:50:53.407Z,15.45
2019-01-31T06:53:22.480Z,19.20
2019-01-31T06:55:51.598Z,14.83
2019-01-31T06:58:21.003Z,14.18
2019-01-31T07:00:50.439Z,18.70
2019-01-31T07:03:19.548Z,15.32
2019-01-31T07:05:48.899Z,12.68
2019-01-31T07:08:17.965Z,18.67
2019-01-31T07:10:47.396Z,19.32
2019-01-31T07:13:16.462Z,14.10
2019-01-31T07:15:45.544Z,17.50
2019-01-31T07:18:14.718Z,15.83
2019-01-31T07:20:43.790Z,19.15
2019-01-31T07:23:13.807Z,13.40
2019-01-31T07:25:43.229Z,14.78
2019-01-31T07:28:13.813Z,17.90
2019-01-31T07:30:42.859Z,15.60
2019-01-31T07:33:11.946Z,20.27
2019-01-31T07:35:41.356Z,17.50
2019-01-31T07:38:10.420Z,16.32
2019-01-31T07:40:39.559Z,22.45
2019-01-31T07:43:08.625Z,16.93
2019-01-31T07:45:38.040Z,15.53
2019-01-31T07:48:07.425Z,21.68
2019-01-31T07:50:36.460Z,20.07
2019-01-31T07:53:05.548Z,16.10
2019-01-31T07:55:34.660Z,18.67
2019-01-31T07:58:04.027Z,17.33
2019-01-31T08:00:33.062Z,17.00
2019-01-31T08:03:02.503Z,17.93
2019-01-31T08:05:31.600Z,17.40
2019-01-31T08:08:00.661Z,19.27
2019-01-31T08:10:39.919Z,20.57
2019-01-31T08:13:08.977Z,18.80
2019-01-31T08:15:38.447Z,22.48
2019-01-31T08:18:07.589Z,21.77
2019-01-31T08:20:36.913Z,24.93
2019-01-31T08:23:06.313Z,18.87
2019-01-31T08:25:35.718Z,17.43
2019-01-31T08:28:05.563Z,18.13
2019-01-31T08:30:39.292Z,21.73
2019-01-31T08:33:08.633Z,18.67
2019-01-31T08:35:37.729Z,18.50
2019-01-31T08:38:06.804Z,22.52
2019-01-31T08:40:36.250Z,24.77
2019-01-31T08:43:05.462Z,22.70
2019-01-31T08:45:34.495Z,22.30
2019-01-31T08:48:03.612Z,21.77
2019-01-31T08:50:32.911Z,22.07
2019-01-31T08:53:01.982Z,24.00
2019-01-31T08:55:31.098Z,21.10
2019-01-31T08:58:00.365Z,26.87
2019-01-31T09:00:31.498Z,22.57
2019-01-31T09:03:00.565Z,27.10
2019-01-31T09:05:29.636Z,33.80
2019-01-31T09:07:58.678Z,34.00
2019-01-31T09:10:38.307Z,32.47
2019-01-31T09:13:10.181Z,27.37
2019-01-31T09:15:39.547Z,24.77
2019-01-31T09:18:08.664Z,24.57
2019-01-31T09:20:48.597Z,27.07
2019-01-31T09:23:49.430Z,31.03
2019-01-31T09:26:38.423Z,25.17
2019-01-31T09:29:26.845Z,28.53
2019-01-31T09:32:23.329Z,28.30
2019-01-31T09:35:12.225Z,26.10
2019-01-31T09:38:25.358Z,26.47
2019-01-31T09:41:02.200Z,24.43
2019-01-31T09:44:04.953Z,24.07
2019-01-31T09:47:15.338Z,29.17
2019-01-31T09:50:07.480Z,27.03
2019-01-31T09:52:59.637Z,29.13
2019-01-31T09:55:55.986Z,26.73
2019-01-31T09:58:58.573Z,32.03
2019-01-31T10:02:01.273Z,31.03
2019-01-31T10:04:49.792Z,27.13
2019-01-31T10:07:30.066Z,33.83
2019-01-31T10:10:36.859Z,31.40
2019-01-31T10:13:35.926Z,32.27
2019-01-31T10:16:30.414Z,29.73
2019-01-31T10:19:23.297Z,36.00
2019-01-31T10:22:18.908Z,33.70
2019-01-31T10:25:04.069Z,27.97
2019-01-31T10:28:02.238Z,23.87
2019-01-31T10:30:59.715Z,28.17
2019-01-31T10:34:01.834Z,33.67
2019-01-31T10:36:41.836Z,32.30
2019-01-31T10:39:36.516Z,29.07
2019-01-31T10:42:32.966Z,34.33
2019-01-31T10:45:36.365Z,27.67
2019-01-31T10:48:27.753Z,27.30
2019-01-31T10:51:40.831Z,29.47
2019-01-31T10:54:20.305Z,25.13
2019-01-31T10:56:59.820Z,21.60
2019-01-31T10:59:51.925Z,20.10
2019-01-31T11:02:51.535Z,18.00
2019-01-31T11:05:53.354Z,17.62
2019-01-31T11:08:58.978Z,15.55
2019-01-31T11:11:38.720Z,15.97
2019-01-31T11:14:24.821Z,16.37
2019-01-31T11:17:13.041Z,15.83
2019-01-31T11:19:56.021Z,15.33
2019-01-31T11:22:42.101Z,15.97
2019-01-31T11:25:33.267Z,19.30
2019-01-31T11:28:19.005Z,16.12
2019-01-31T11:31:21.289Z,19.90
2019-01-31T11:34:04.438Z,19.52
2019-01-31T11:36:50.417Z,20.20
2019-01-31T11:39:33.048Z,19.82
2019-01-31T11:42:15.535Z,19.67
2019-01-31T11:45:25.655Z,19.93
2019-01-31T11:48:25.275Z,22.73
2019-01-31T11:51:15.695Z,20.60
2019-01-31T11:54:08.755Z,20.70
2019-01-31T11:57:06.488Z,23.10
2019-01-31T11:59:35.838Z,22.05
2019-01-31T12:02:05.562Z,21.97
2019-01-31T12:04:34.939Z,22.25
2019-01-31T12:07:04.052Z,21.68
2019-01-31T12:09:33.132Z,23.52
2019-01-31T12:12:02.153Z,25.30
2019-01-31T12:14:31.653Z,23.73
2019-01-31T12:17:00.719Z,24.27
2019-01-31T12:19:29.774Z,24.10
2019-01-31T12:21:58.878Z,26.07
2019-01-31T12:24:27.979Z,21.68
2019-01-31T12:26:57.308Z,20.80
2019-01-31T12:29:26.426Z,22.93
2019-01-31T12:31:55.839Z,19.48
2019-01-31T12:34:24.929Z,19.17
2019-01-31T12:36:54.042Z,19.40
2019-01-31T12:39:23.136Z,19.37
2019-01-31T12:41:52.195Z,18.30
2019-01-31T12:44:21.300Z,18.87
2019-01-31T12:46:50.360Z,19.35
2019-01-31T12:49:19.480Z,20.80
2019-01-31T12:51:48.882Z,17.27
2019-01-31T12:54:18.382Z,16.40
2019-01-31T12:56:47.430Z,17.98
2019-01-31T12:59:16.874Z,19.05
2019-01-31T13:01:45.965Z,16.73
2019-01-31T13:04:14.985Z,16.73
2019-01-31T13:06:44.089Z,15.28
2019-01-31T13:09:13.158Z,18.60
2019-01-31T13:11:42.584Z,17.80
2019-01-31T13:14:11.955Z,14.50
2019-01-31T13:16:41.019Z,14.80
2019-01-31T13:19:10.072Z,14.83
2019-01-31T13:21:39.448Z,15.63
2019-01-31T13:24:10.968Z,13.85
2019-01-31T13:26:40.057Z,12.60
2019-01-31T13:29:09.159Z,15.20
2019-01-31T13:31:38.225Z,13.72
2019-01-31T13:34:07.326Z,13.65
2019-01-31T13:36:36.435Z,22.00
2019-01-31T13:39:09.432Z,16.87
2019-01-31T13:41:38.485Z,15.80
2019-01-31T13:44:07.621Z,13.50
2019-01-31T13:46:36.968Z,13.13
2019-01-31T13:49:06.394Z,14.73
2019-01-31T13:51:35.534Z,13.78
2019-01-31T13:54:04.793Z,15.03
2019-01-31T13:56:44.889Z,15.88
2019-01-31T13:59:04.710Z,13.58
2019-01-31T14:01:33.812Z,15.23
2019-01-31T14:04:02.834Z,14.58
2019-01-31T14:06:31.964Z,15.85
2019-01-31T14:09:01.049Z,17.05
2019-01-31T14:11:30.384Z,17.75
2019-01-31T14:14:08.816Z,15.50
2019-01-31T14:16:30.729Z,20.48
2019-01-31T14:18:59.791Z,16.15
2019-01-31T14:21:29.164Z,15.28
2019-01-31T14:23:58.502Z,15.72
2019-01-31T14:26:27.617Z,18.40
2019-01-31T14:28:56.726Z,22.17
2019-01-31T14:31:26.113Z,27.82
2019-01-31T14:33:55.197Z,23.40
2019-01-31T14:36:24.378Z,33.85
2019-01-31T14:38:53.471Z,27.35
2019-01-31T14:41:22.704Z,26.80
2019-01-31T14:43:52.097Z,22.42
2019-01-31T14:46:21.165Z,28.75
2019-01-31T14:48:50.289Z,38.23
2019-01-31T14:51:19.402Z,47.05
2019-01-31T14:53:48.466Z,19.67
2019-01-31T14:56:17.526Z,18.40
2019-01-31T14:58:46.964Z,17.62
2019-01-31T15:01:16.404Z,15.43
2019-01-31T15:03:45.467Z,16.07
2019-01-31T15:06:14.871Z,16.23
2019-01-31T15:08:49.305Z,16.60
2019-01-31T15:11:18.393Z,16.17
2019-01-31T15:13:47.514Z,14.37
2019-01-31T15:16:16.574Z,14.78
2019-01-31T15:18:45.675Z,14.30
2019-01-31T15:21:14.770Z,13.43
2019-01-31T15:23:44.197Z,15.65
2019-01-31T15:26:13.295Z,14.95
2019-01-31T15:28:42.374Z,17.50
2019-01-31T15:31:11.772Z,18.12
2019-01-31T15:33:40.857Z,17.80
2019-01-31T15:36:09.975Z,18.60
2019-01-31T15:38:39.027Z,19.52
2019-01-31T15:41:08.142Z,20.85
2019-01-31T15:43:37.507Z,19.17
2019-01-31T15:46:06.568Z,19.67
2019-01-31T15:48:35.948Z,22.13
2019-01-31T15:51:05.099Z,21.23
2019-01-31T15:53:34.630Z,20.27
2019-01-31T15:56:03.696Z,19.65
2019-01-31T15:58:32.865Z,22.17
2019-01-31T16:01:01.895Z,20.05
2019-01-31T16:03:30.934Z,17.43
2019-01-31T16:06:00.262Z,20.13
2019-01-31T16:08:29.389Z,21.80
2019-01-31T16:10:58.452Z,19.67
2019-01-31T16:13:27.612Z,19.43
2019-01-31T16:15:56.667Z,18.77
2019-01-31T16:18:25.849Z,19.03
2019-01-31T16:20:55.038Z,19.53
2019-01-31T16:23:24.397Z,20.83
2019-01-31T16:25:53.502Z,24.30
2019-01-31T16:28:22.632Z,24.03
2019-01-31T16:30:51.711Z,22.60
2019-01-31T16:33:20.809Z,20.80
2019-01-31T16:35:50.180Z,20.83
2019-01-31T16:38:19.504Z,20.80
2019-01-31T16:40:48.542Z,17.00
2019-01-31T16:43:17.662Z,18.37
2019-01-31T16:45:46.795Z,17.87
2019-01-31T16:48:15.864Z,14.70
2019-01-31T16:50:45.204Z,15.63
2019-01-31T16:53:14.215Z,17.10
2019-01-31T16:55:43.321Z,16.70
2019-01-31T16:58:12.411Z,20.57
2019-01-31T17:00:41.474Z,19.30
2019-01-31T17:03:13.013Z,18.23
2019-01-31T17:05:41.685Z,20.73
2019-01-31T17:08:10.784Z,18.03
2019-01-31T17:10:39.851Z,16.67
2019-01-31T17:13:09.308Z,16.40
2019-01-31T17:15:38.374Z,18.80
2019-01-31T17:18:07.474Z,16.50
2019-01-31T17:20:40.995Z,20.00
2019-01-31T17:23:10.229Z,20.35
2019-01-31T17:25:39.580Z,21.50
2019-01-31T17:28:09.093Z,19.80
2019-01-31T17:30:38.164Z,16.40
2019-01-31T17:33:10.450Z,17.32
2019-01-31T17:35:39.854Z,20.40
2019-01-31T17:38:08.956Z,21.95
2019-01-31T17:40:38.973Z,20.77
2019-01-31T17:43:08.754Z,23.57
2019-01-31T17:45:37.864Z,23.90
2019-01-31T17:48:07.657Z,21.77
2019-01-31T17:50:37.088Z,25.48
2019-01-31T17:53:06.189Z,26.55
2019-01-31T17:55:35.260Z,22.27
2019-01-31T17:58:04.697Z,21.77
2019-01-31T18:00:42.735Z,19.92
2019-01-31T18:03:12.012Z,19.90
2019-01-31T18:05:41.388Z,17.17
2019-01-31T18:08:10.460Z,19.17
2019-01-31T18:10:39.581Z,19.45
2019-01-31T18:13:08.647Z,20.82
2019-01-31T18:15:42.149Z,18.92
2019-01-31T18:18:09.034Z,16.48
2019-01-31T18:20:38.108Z,17.75
2019-01-31T18:23:07.820Z,18.30
2019-01-31T18:25:36.929Z,16.95
2019-01-31T18:28:06.003Z,17.62
2019-01-31T18:30:37.632Z,17.92
2019-01-31T18:33:07.092Z,18.17
2019-01-31T18:35:36.161Z,17.25
2019-01-31T18:38:05.647Z,17.82
2019-01-31T18:40:36.122Z,15.43
2019-01-31T18:43:05.263Z,17.70
2019-01-31T18:45:35.977Z,19.87
2019-01-31T18:48:06.886Z,19.05
2019-01-31T18:50:39.896Z,20.12
2019-01-31T18:53:09.042Z,19.07
2019-01-31T18:55:38.117Z,19.12
2019-01-31T18:58:07.691Z,26.80
2019-01-31T19:00:47.113Z,19.70
2019-01-31T19:03:16.275Z,22.60
2019-01-31T19:05:45.662Z,20.97
2019-01-31T19:08:14.731Z,19.52
2019-01-31T19:10:44.053Z,21.30
2019-01-31T19:13:13.439Z,25.48
2019-01-31T19:15:42.774Z,28.00
2019-01-31T19:18:12.371Z,31.17
2019-01-31T19:20:41.444Z,27.37
2019-01-31T19:23:10.910Z,27.93
2019-01-31T19:25:40.018Z,27.17
2019-01-31T19:28:09.091Z,31.87
2019-01-31T19:30:40.520Z,40.65
2019-01-31T19:33:09.658Z,53.38
2019-01-31T19:35:38.748Z,43.87
2019-01-31T19:38:08.155Z,36.58
2019-01-31T19:40:43.865Z,37.73
2019-01-31T19:43:12.967Z,36.80
2019-01-31T19:45:47.137Z,34.43
2019-01-31T19:48:18.960Z,37.13
2019-01-31T19:50:48.362Z,34.85
2019-01-31T19:53:17.463Z,36.20
2019-01-31T19:55:46.632Z,34.15
2019-01-31T19:58:15.704Z,33.88
2019-01-31T20:00:44.771Z,31.57
2019-01-31T20:03:14.180Z,33.20
2019-01-31T20:05:43.252Z,33.95
2019-01-31T20:08:12.322Z,31.00
2019-01-31T20:10:41.447Z,25.15
2019-01-31T20:13:10.832Z,27.35
2019-01-31T20:15:39.912Z,27.80
2019-01-31T20:18:09.207Z,24.98
2019-01-31T20:20:38.310Z,29.52
2019-01-31T20:23:07.710Z,26.42
2019-01-31T20:25:36.836Z,25.88
2019-01-31T20:28:06.286Z,25.50
2019-01-31T20:30:35.389Z,24.55
2019-01-31T20:33:04.793Z,25.30
2019-01-31T20:35:33.922Z,26.25
2019-01-31T20:38:03.025Z,27.48
2019-01-31T20:40:36.389Z,25.02
2019-01-31T20:43:06.329Z,26.68
2019-01-31T20:45:35.701Z,25.70
2019-01-31T20:48:05.830Z,24.02
2019-01-31T20:50:38.193Z,27.05
2019-01-31T20:53:07.831Z,25.15
2019-01-31T20:55:36.957Z,24.45
2019-01-31T20:58:06.170Z,22.40
2019-01-31T21:00:39.413Z,24.87
2019-01-31T21:03:09.730Z,23.67
2019-01-31T21:05:39.034Z,23.05
2019-01-31T21:08:08.898Z,22.60
2019-01-31T21:10:38.332Z,19.30
2019-01-31T21:13:07.536Z,21.68
2019-01-31T21:15:36.860Z,21.17
2019-01-31T21:18:06.588Z,19.42
2019-01-31T21:20:35.656Z,19.25
2019-01-31T21:23:05.659Z,17.82
2019-01-31T21:25:34.895Z,19.92
2019-01-31T21:28:03.931Z,15.32
2019-01-31T21:30:38.991Z,17.20
2019-01-31T21:33:08.111Z,20.27
2019-01-31T21:35:37.195Z,17.15
2019-01-31T21:38:06.293Z,17.17
2019-01-31T21:40:36.163Z,17.92
2019-01-31T21:43:05.875Z,16.90
2019-01-31T21:45:34.933Z,16.77
2019-01-31T21:48:05.361Z,14.47
2019-01-31T21:50:34.422Z,14.85
2019-01-31T21:53:03.489Z,14.23
2019-01-31T21:55:32.599Z,10.08
2019-01-31T21:58:02.011Z,14.33
2019-01-31T22:00:35.514Z,15.25
2019-01-31T22:03:05.776Z,14.73
2019-01-31T22:05:35.229Z,13.68
2019-01-31T22:08:04.608Z,13.05
2019-01-31T22:10:33.721Z,13.43
2019-01-31T22:13:03.359Z,15.48
2019-01-31T22:15:35.274Z,17.65
2019-01-31T22:18:05.711Z,15.03
2019-01-31T22:20:34.792Z,14.33
2019-01-31T22:23:07.497Z,14.43
2019-01-31T22:25:36.605Z,17.25
2019-01-31T22:28:05.672Z,17.90
2019-01-31T22:30:36.647Z,17.10
2019-01-31T22:33:06.797Z,16.10
2019-01-31T22:35:36.131Z,15.00
2019-01-31T22:38:05.340Z,13.53
2019-01-31T22:40:34.462Z,14.40
2019-01-31T22:43:03.519Z,16.25
2019-01-31T22:45:32.649Z,11.85
2019-01-31T22:48:01.774Z,14.13
2019-01-31T22:50:30.842Z,15.30
2019-01-31T22:52:59.930Z,16.67
2019-01-31T22:55:29.089Z,14.43
2019-01-31T22:57:58.398Z,16.65
2019-01-31T23:00:45.513Z,16.80
2019-01-31T23:03:14.584Z,16.15
2019-01-31T23:05:43.667Z,14.98
2019-01-31T23:08:12.760Z,13.30
2019-01-31T23:10:41.852Z,11.95
2019-01-31T23:13:11.640Z,12.65
2019-01-31T23:15:41.013Z,12.95
2019-01-31T23:18:10.251Z,13.75
2019-01-31T23:20:39.604Z,12.93
2019-01-31T23:23:08.755Z,13.75
2019-01-31T23:25:40.189Z,12.70
2019-01-31T23:28:08.946Z,12.82
2019-01-31T23:30:38.098Z,13.35
2019-01-31T23:33:07.418Z,10.50
2019-01-31T23:35:37.506Z,12.15
2019-01-31T23:38:06.653Z,13.32
2019-01-31T23:40:36.078Z,9.48
2019-01-31T23:43:06.212Z,15.90
2019-01-31T23:45:35.361Z,16.23
2019-01-31T23:48:04.795Z,12.03
2019-01-31T23:50:33.862Z,12.13
2019-01-31T23:53:03.225Z,12.80
2019-01-31T23:55:32.285Z,1.95
2019-01-31T23:58:01.371Z,13.43
